createdAt,value
2024-02-15T00:01:23.047Z,92357.88
2024-02-15T00:03:56.992Z,92351.13
2024-02-15T00:06:31.971Z,92359.63
2024-02-15T00:09:05.641Z,92352.72
2024-02-15T00:11:41.406Z,92354.00
2024-02-15T00:14:15.025Z,92347.84
2024-02-15T00:16:48.605Z,92352.72
2024-02-15T00:19:22.878Z,92356.56
2024-02-15T00:21:57.388Z,92350.41
2024-02-15T00:24:32.018Z,92352.13
2024-02-15T00:27:07.423Z,92352.91
2024-02-15T00:29:41.645Z,92357.28
2024-02-15T00:32:15.456Z,92363.22
2024-02-15T00:34:49.510Z,92358.88
2024-02-15T00:37:23.564Z,92358.38
2024-02-15T00:39:57.121Z,92354.81
2024-02-15T00:42:32.836Z,92367.13
2024-02-15T00:45:07.216Z,92360.66
2024-02-15T00:47:43.043Z,92365.28
2024-02-15T00:50:17.290Z,92360.97
2024-02-15T00:52:50.971Z,92357.13
2024-02-15T00:55:24.701Z,92359.63
2024-02-15T00:57:59.772Z,92357.06
2024-02-15T01:00:33.322Z,92359.72
2024-02-15T01:03:07.036Z,92356.38
2024-02-15T01:05:40.932Z,92364.25
2024-02-15T01:08:14.620Z,92374.78
2024-02-15T01:10:48.357Z,92372.75
2024-02-15T01:13:23.338Z,92364.75
2024-02-15T01:15:57.194Z,92361.44
2024-02-15T01:18:31.018Z,92359.41
2024-02-15T01:21:05.126Z,92359.41
2024-02-15T01:25:21.090Z,92363.47
2024-02-15T01:27:54.802Z,92357.69
2024-02-15T01:30:29.762Z,92366.97
2024-02-15T01:33:03.457Z,92356.22
2024-02-15T01:35:37.670Z,92351.59
2024-02-15T01:38:11.678Z,92358.09
2024-02-15T01:40:48.716Z,92358.38
2024-02-15T01:43:22.331Z,92348.88
2024-02-15T01:45:57.751Z,92354.25
2024-02-15T01:48:31.632Z,92351.91
2024-02-15T01:51:06.739Z,92351.91
2024-02-15T01:53:42.471Z,92339.38
2024-02-15T01:56:19.378Z,92360.72
2024-02-15T01:58:53.605Z,92361.25
2024-02-15T02:01:27.874Z,92368.22
2024-02-15T02:04:02.996Z,92367.69
2024-02-15T02:06:36.728Z,92371.97
2024-02-15T02:09:14.127Z,92368.59
2024-02-15T02:11:51.894Z,92365.81
2024-02-15T02:14:25.579Z,92366.81
2024-02-15T02:17:13.170Z,92371.66
2024-02-15T02:19:46.842Z,92375.34
2024-02-15T02:22:21.829Z,92372.84
2024-02-15T02:25:01.927Z,92376.09
2024-02-15T02:27:35.850Z,92371.75
2024-02-15T02:30:16.524Z,92363.47
2024-02-15T02:32:50.699Z,92363.47
2024-02-15T02:35:24.398Z,92366.84
2024-02-15T02:37:58.718Z,92373.00
2024-02-15T02:40:35.058Z,92372.06
2024-02-15T02:43:08.634Z,92369.56
2024-02-15T02:45:42.852Z,92364.03
2024-02-15T02:48:16.563Z,92374.16
2024-02-15T02:50:50.536Z,92363.50
2024-02-15T02:53:24.358Z,92377.28
2024-02-15T02:55:59.480Z,92372.59
2024-02-15T02:58:33.070Z,92376.34
2024-02-15T03:01:07.488Z,92376.03
2024-02-15T03:03:41.241Z,92372.75
2024-02-15T03:06:15.203Z,92377.97
2024-02-15T03:08:49.121Z,92375.94
2024-02-15T03:11:24.112Z,92377.69
2024-02-15T03:13:59.520Z,92375.91
2024-02-15T03:16:33.174Z,92379.31
2024-02-15T03:19:06.813Z,92378.84
2024-02-15T03:21:40.926Z,92378.84
2024-02-15T03:24:14.567Z,92389.13
2024-02-15T03:26:49.548Z,92385.81
2024-02-15T03:29:23.761Z,92377.22
2024-02-15T03:31:57.353Z,92391.25
2024-02-15T03:34:31.159Z,92388.44
2024-02-15T03:37:05.243Z,92391.25
2024-02-15T03:39:38.876Z,92385.84
2024-02-15T03:42:13.902Z,92393.25
2024-02-15T03:44:49.025Z,92386.09
2024-02-15T03:47:22.757Z,92385.47
2024-02-15T03:49:56.932Z,92391.94
2024-02-15T03:52:31.038Z,92393.97
2024-02-15T03:55:05.421Z,92390.25
2024-02-15T03:57:42.391Z,92391.16
2024-02-15T04:00:17.165Z,92393.34
2024-02-15T04:02:51.303Z,92391.31
2024-02-15T04:05:25.163Z,92387.66
2024-02-15T04:07:58.733Z,92396.16
2024-02-15T04:10:32.379Z,92394.28
2024-02-15T04:13:11.622Z,92385.59
2024-02-15T04:15:48.087Z,92399.13
2024-02-15T04:18:21.769Z,92398.72
2024-02-15T04:20:55.491Z,92393.72
2024-02-15T04:23:30.460Z,92393.63
2024-02-15T04:26:04.548Z,92396.59
2024-02-15T04:28:39.530Z,92402.31
2024-02-15T04:31:13.742Z,92402.97
2024-02-15T04:33:50.230Z,92408.53
2024-02-15T04:36:25.971Z,92406.19
2024-02-15T04:38:59.570Z,92406.88
2024-02-15T04:41:33.429Z,92403.56
2024-02-15T04:44:12.994Z,92411.88
2024-02-15T04:46:47.008Z,92413.13
2024-02-15T04:49:20.941Z,92415.53
2024-02-15T04:51:54.578Z,92420.75
2024-02-15T04:54:28.167Z,92411.94
2024-02-15T04:57:02.297Z,92416.84
2024-02-15T04:59:37.431Z,92430.41
2024-02-15T05:02:11.487Z,92429.94
2024-02-15T05:04:45.613Z,92424.47
2024-02-15T05:07:19.695Z,92431.66
2024-02-15T05:09:54.110Z,92434.72
2024-02-15T05:12:28.595Z,92432.78
2024-02-15T05:15:11.016Z,92435.69
2024-02-15T05:17:44.945Z,92436.69
2024-02-15T05:20:21.718Z,92443.41
2024-02-15T05:22:55.305Z,92438.56
2024-02-15T05:25:28.876Z,92438.25
2024-02-15T05:28:02.842Z,92442.94
2024-02-15T05:30:40.333Z,92447.91
2024-02-15T05:33:14.047Z,92453.75
2024-02-15T05:35:51.068Z,92452.97
2024-02-15T05:38:25.147Z,92455.88
2024-02-15T05:40:58.935Z,92449.50
2024-02-15T05:43:34.274Z,92454.97
2024-02-15T05:46:10.948Z,92458.31
2024-02-15T05:48:44.607Z,92460.53
2024-02-15T05:51:18.318Z,92464.50
2024-02-15T05:53:52.083Z,92465.31
2024-02-15T05:56:27.037Z,92468.19
2024-02-15T05:59:03.362Z,92472.22
2024-02-15T06:01:38.315Z,92470.53
2024-02-15T06:04:12.164Z,92473.34
2024-02-15T06:06:50.220Z,92472.63
2024-02-15T06:09:27.717Z,92471.75
2024-02-15T06:12:01.806Z,92470.97
2024-02-15T06:14:35.425Z,92481.88
2024-02-15T06:17:11.873Z,92482.75
2024-02-15T06:19:45.439Z,92482.84
2024-02-15T06:22:19.005Z,92488.22
2024-02-15T06:24:52.579Z,92487.72
2024-02-15T06:27:26.263Z,92482.66
2024-02-15T06:30:17.661Z,92494.38
2024-02-15T06:33:10.072Z,92487.00
2024-02-15T06:36:06.552Z,92485.88
2024-02-15T06:38:57.818Z,92494.00
2024-02-15T06:41:31.370Z,92499.38
2024-02-15T06:44:05.168Z,92495.38
2024-02-15T06:46:38.711Z,92500.81
2024-02-15T06:49:14.141Z,92499.97
2024-02-15T06:51:50.455Z,92503.38
2024-02-15T06:54:25.018Z,92504.91
2024-02-15T06:56:59.141Z,92506.25
2024-02-15T06:59:33.788Z,92495.16
2024-02-15T07:02:09.300Z,92502.66
2024-02-15T07:04:47.102Z,92502.56
2024-02-15T07:07:20.727Z,92508.59
2024-02-15T07:09:54.472Z,92512.91
2024-02-15T07:12:28.075Z,92509.34
2024-02-15T07:15:02.595Z,92508.59
2024-02-15T07:17:38.060Z,92510.03
2024-02-15T07:20:15.456Z,92509.25
2024-02-15T07:22:49.113Z,92507.91
2024-02-15T07:25:22.677Z,92507.28
2024-02-15T07:27:57.926Z,92501.22
2024-02-15T07:30:32.765Z,92499.44
2024-02-15T07:33:07.897Z,92500.59
2024-02-15T07:35:44.395Z,92496.69
2024-02-15T07:38:18.339Z,92491.78
2024-02-15T07:40:51.884Z,92484.91
2024-02-15T07:43:25.494Z,92481.97
2024-02-15T07:45:59.033Z,92481.66
2024-02-15T07:48:33.784Z,92483.50
2024-02-15T07:51:11.013Z,92482.19
2024-02-15T07:53:45.175Z,92477.66
2024-02-15T07:56:20.827Z,92484.56
2024-02-15T07:58:54.924Z,92478.63
2024-02-15T08:01:28.789Z,92479.66
2024-02-15T08:04:02.433Z,92485.00
2024-02-15T08:06:39.230Z,92486.13
2024-02-15T08:09:15.077Z,92470.78
2024-02-15T08:11:48.832Z,92480.22
2024-02-15T08:14:22.449Z,92485.25
2024-02-15T08:16:56.794Z,92479.78
2024-02-15T08:19:30.728Z,92486.78
2024-02-15T08:22:08.585Z,92470.59
2024-02-15T08:24:42.176Z,92480.22
2024-02-15T08:27:17.355Z,92478.44
2024-02-15T08:29:51.030Z,92473.25
2024-02-15T08:32:25.488Z,92472.97
2024-02-15T08:35:00.241Z,92473.19
2024-02-15T08:37:36.189Z,92469.63
2024-02-15T08:40:12.672Z,92472.97
2024-02-15T08:42:47.024Z,92478.59
2024-02-15T08:45:21.451Z,92474.38
2024-02-15T08:47:55.407Z,92469.19
2024-02-15T08:50:29.309Z,92470.16
2024-02-15T08:53:07.256Z,92473.81
2024-02-15T08:55:40.857Z,92470.88
2024-02-15T08:58:14.416Z,92468.06
2024-02-15T09:00:47.970Z,92466.28
2024-02-15T09:03:21.672Z,92469.88
2024-02-15T09:05:55.329Z,92466.56
2024-02-15T09:08:31.227Z,92463.06
2024-02-15T09:11:06.476Z,92464.44
2024-02-15T09:13:40.728Z,92459.41
2024-02-15T09:16:14.371Z,92458.91
2024-02-15T09:18:48.176Z,92459.00
2024-02-15T09:21:23.348Z,92455.34
2024-02-15T09:23:58.374Z,92448.63
2024-02-15T09:26:32.056Z,92451.03
2024-02-15T09:29:08.598Z,92451.25
2024-02-15T09:31:42.551Z,92444.28
2024-02-15T09:34:16.394Z,92446.63
2024-02-15T09:36:50.150Z,92449.72
2024-02-15T09:39:25.277Z,92437.31
2024-02-15T09:42:03.438Z,92440.94
2024-02-15T09:44:37.154Z,92441.81
2024-02-15T09:47:12.750Z,92443.56
2024-02-15T09:49:46.510Z,92438.38
2024-02-15T09:52:20.167Z,92444.91
2024-02-15T09:54:56.500Z,92437.13
2024-02-15T09:57:30.288Z,92435.56
2024-02-15T10:00:08.404Z,92439.47
2024-02-15T10:02:43.111Z,92439.22
2024-02-15T10:05:16.780Z,92434.50
2024-02-15T10:07:50.418Z,92433.47
2024-02-15T10:10:26.928Z,92424.69
2024-02-15T10:13:02.565Z,92420.03
2024-02-15T10:15:37.952Z,92418.97
2024-02-15T10:18:14.015Z,92405.75
2024-02-15T10:21:00.205Z,92406.25
2024-02-15T10:23:34.213Z,92406.50
2024-02-15T10:26:24.634Z,92400.00
2024-02-15T10:29:10.246Z,92398.94
2024-02-15T10:31:55.978Z,92393.75
2024-02-15T10:34:30.698Z,92399.19
2024-02-15T10:37:13.403Z,92386.19
2024-02-15T10:39:48.016Z,92394.66
2024-02-15T10:42:23.518Z,92394.91
2024-02-15T10:44:57.399Z,92386.47
2024-02-15T10:47:32.151Z,92383.63
2024-02-15T10:50:06.768Z,92385.50
2024-02-15T10:52:50.366Z,92384.53
2024-02-15T10:55:35.779Z,92391.03
2024-02-15T10:58:12.805Z,92378.00
2024-02-15T11:00:48.673Z,92381.91
2024-02-15T11:03:27.899Z,92382.69
2024-02-15T11:06:04.597Z,92377.00
2024-02-15T11:08:38.483Z,92376.94
2024-02-15T11:11:15.759Z,92382.31
2024-02-15T11:13:51.269Z,92380.41
2024-02-15T11:16:44.016Z,92378.47
2024-02-15T11:19:48.221Z,92369.03
2024-02-15T11:22:24.175Z,92366.97
2024-02-15T11:24:58.006Z,92371.19
2024-02-15T11:27:33.252Z,92364.75
2024-02-15T11:30:13.817Z,92367.06
2024-02-15T11:32:50.992Z,92362.66
2024-02-15T11:35:26.398Z,92362.56
2024-02-15T11:38:04.185Z,92366.44
2024-02-15T11:41:06.825Z,92364.38
2024-02-15T11:43:57.253Z,92371.38
2024-02-15T11:46:33.802Z,92361.44
2024-02-15T11:49:08.634Z,92359.88
2024-02-15T11:51:51.289Z,92362.44
2024-02-15T11:54:24.903Z,92361.53
2024-02-15T11:57:11.541Z,92359.81
2024-02-15T12:00:14.124Z,92368.06
2024-02-15T12:03:06.530Z,92366.72
2024-02-15T12:05:58.587Z,92367.03
2024-02-15T12:08:49.826Z,92359.56
2024-02-15T12:11:41.095Z,92355.66
2024-02-15T12:14:32.678Z,92336.97
2024-02-15T12:17:25.087Z,92345.31
2024-02-15T12:20:07.870Z,92344.03
2024-02-15T12:22:44.689Z,92346.50
2024-02-15T12:25:22.278Z,92347.34
2024-02-15T12:27:57.770Z,92348.53
2024-02-15T12:30:38.998Z,92341.66
2024-02-15T12:33:15.060Z,92342.16
2024-02-15T12:35:51.458Z,92346.72
2024-02-15T12:38:25.184Z,92333.63
2024-02-15T12:40:58.849Z,92339.56
2024-02-15T12:43:32.547Z,92330.31
2024-02-15T12:46:08.311Z,92337.84
2024-02-15T12:48:44.923Z,92324.22
2024-02-15T12:51:20.067Z,92332.53
2024-02-15T12:53:53.748Z,92325.63
2024-02-15T12:56:27.393Z,92322.25
2024-02-15T12:59:02.060Z,92324.81
2024-02-15T13:01:35.826Z,92326.06
2024-02-15T13:04:09.973Z,92326.69
2024-02-15T13:06:45.048Z,92332.81
2024-02-15T13:09:18.909Z,92326.94
2024-02-15T13:11:54.887Z,92326.69
2024-02-15T13:14:30.610Z,92331.31
2024-02-15T13:17:04.137Z,92330.97
2024-02-15T13:19:37.837Z,92325.03
2024-02-15T13:22:12.812Z,92324.09
2024-02-15T13:24:47.054Z,92327.38
2024-02-15T13:27:20.712Z,92321.53
2024-02-15T13:29:54.764Z,92323.41
2024-02-15T13:32:29.561Z,92313.84
2024-02-15T13:35:08.659Z,92309.41
2024-02-15T13:37:45.241Z,92316.13
2024-02-15T13:40:20.960Z,92310.53
2024-02-15T13:42:59.666Z,92312.00
2024-02-15T13:45:34.531Z,92310.69
2024-02-15T13:48:10.139Z,92298.31
2024-02-15T13:50:44.224Z,92305.16
2024-02-15T13:53:19.541Z,92306.25
2024-02-15T13:55:53.375Z,92306.41
2024-02-15T13:58:26.983Z,92304.50
2024-02-15T14:01:04.315Z,92305.69
2024-02-15T14:03:37.941Z,92313.63
2024-02-15T14:06:11.665Z,92312.97
2024-02-15T14:08:48.157Z,92308.91
2024-02-15T14:11:22.385Z,92305.34
2024-02-15T14:13:59.519Z,92307.25
2024-02-15T14:16:35.414Z,92298.94
2024-02-15T14:19:10.004Z,92314.22
2024-02-15T14:21:46.093Z,92317.56
2024-02-15T14:24:23.988Z,92314.75
2024-02-15T14:26:57.629Z,92316.75
2024-02-15T14:29:34.144Z,92316.75
2024-02-15T14:32:25.065Z,92324.06
2024-02-15T14:34:58.671Z,92319.03
2024-02-15T14:37:32.275Z,92319.13
2024-02-15T14:40:08.644Z,92318.00
2024-02-15T14:42:55.666Z,92316.91
2024-02-15T14:45:31.805Z,92328.22
2024-02-15T14:48:07.247Z,92319.59
2024-02-15T14:50:41.424Z,92298.69
2024-02-15T14:53:16.896Z,92325.34
2024-02-15T14:55:53.029Z,92316.38
2024-02-15T14:58:26.677Z,92318.38
2024-02-15T15:01:00.938Z,92324.63
2024-02-15T15:03:34.909Z,92321.28
2024-02-15T15:06:27.488Z,92326.97
2024-02-15T15:09:18.603Z,92322.53
2024-02-15T15:12:07.584Z,92315.47
2024-02-15T15:14:41.760Z,92325.03
2024-02-15T15:17:17.239Z,92324.19
2024-02-15T15:19:50.932Z,92327.56
2024-02-15T15:22:25.015Z,92325.31
2024-02-15T15:24:58.602Z,92328.59
2024-02-15T15:27:34.886Z,92330.44
2024-02-15T15:30:09.614Z,92333.50
2024-02-15T15:32:43.272Z,92336.63
2024-02-15T15:35:18.877Z,92333.50
2024-02-15T15:37:52.722Z,92333.88
2024-02-15T15:40:27.316Z,92327.97
2024-02-15T15:43:04.186Z,92332.13
2024-02-15T15:45:38.020Z,92335.88
2024-02-15T15:48:12.914Z,92352.50
2024-02-15T15:50:46.700Z,92339.84
2024-02-15T15:53:22.074Z,92347.91
2024-02-15T15:55:55.839Z,92359.59
2024-02-15T15:58:31.129Z,92349.50
2024-02-15T16:01:05.814Z,92353.41
2024-02-15T16:03:41.196Z,92361.44
2024-02-15T16:06:15.518Z,92357.06
2024-02-15T16:08:49.251Z,92362.00
2024-02-15T16:11:23.036Z,92372.63
2024-02-15T16:13:58.062Z,92376.50
2024-02-15T16:16:31.732Z,92373.38
2024-02-15T16:19:06.097Z,92376.72
2024-02-15T16:21:40.500Z,92380.34
2024-02-15T16:24:14.313Z,92376.25
2024-02-15T16:26:48.032Z,92373.63
2024-02-15T16:29:23.372Z,92390.97
2024-02-15T16:31:56.973Z,92393.53
2024-02-15T16:34:30.779Z,92390.91
2024-02-15T16:37:05.210Z,92389.41
2024-02-15T16:39:39.337Z,92386.81
2024-02-15T16:42:13.766Z,92392.50
2024-02-15T16:44:49.153Z,92393.81
2024-02-15T16:47:23.112Z,92399.50
2024-02-15T16:49:58.566Z,92400.00
2024-02-15T16:52:32.175Z,92411.69
2024-02-15T16:55:07.824Z,92406.75
2024-02-15T16:57:42.079Z,92411.91
2024-02-15T17:00:19.493Z,92407.50
2024-02-15T17:02:53.667Z,92408.53
2024-02-15T17:05:28.047Z,92413.69
2024-02-15T17:08:01.730Z,92415.28
2024-02-15T17:10:36.221Z,92412.91
2024-02-15T17:13:10.072Z,92415.97
2024-02-15T17:15:45.034Z,92419.56
2024-02-15T17:18:24.494Z,92393.91
2024-02-15T17:21:00.967Z,92422.16
2024-02-15T17:23:34.820Z,92428.66
2024-02-15T17:26:08.399Z,92409.47
2024-02-15T17:28:42.123Z,92428.06
2024-02-15T17:31:17.940Z,92428.88
2024-02-15T17:33:51.623Z,92434.56
2024-02-15T17:36:25.717Z,92441.78
2024-02-15T17:38:59.925Z,92436.53
2024-02-15T17:41:34.298Z,92446.13
2024-02-15T17:44:09.373Z,92441.19
2024-02-15T17:46:44.279Z,92445.59
2024-02-15T17:49:18.010Z,92444.00
2024-02-15T17:51:51.626Z,92439.31
2024-02-15T17:54:25.321Z,92443.72
2024-02-15T17:56:59.030Z,92446.31
2024-02-15T17:59:32.597Z,92442.97
2024-02-15T18:02:07.658Z,92448.88
2024-02-15T18:04:41.286Z,92444.34
2024-02-15T18:07:17.050Z,92449.84
2024-02-15T18:09:52.331Z,92444.94
2024-02-15T18:12:28.392Z,92452.34
2024-02-15T18:15:03.106Z,92453.38
2024-02-15T18:17:38.183Z,92460.06
2024-02-15T18:20:13.887Z,92455.63
2024-02-15T18:22:47.867Z,92445.28
2024-02-15T18:25:21.667Z,92454.56
2024-02-15T18:27:55.240Z,92457.19
2024-02-15T18:30:34.295Z,92463.13
2024-02-15T18:33:10.837Z,92463.31
2024-02-15T18:35:45.371Z,92469.25
2024-02-15T18:38:18.970Z,92460.75
2024-02-15T18:40:52.695Z,92470.56
2024-02-15T18:43:26.959Z,92473.13
2024-02-15T18:46:00.904Z,92476.50
2024-02-15T18:48:38.065Z,92477.28
2024-02-15T18:51:16.577Z,92475.72
2024-02-15T18:53:50.693Z,92470.88
2024-02-15T18:56:25.801Z,92469.00
2024-02-15T18:59:02.219Z,92466.69
2024-02-15T19:01:36.556Z,92474.72
2024-02-15T19:04:13.358Z,92475.72
2024-02-15T19:06:47.176Z,92470.34
2024-02-15T19:09:21.339Z,92472.63
2024-02-15T19:11:55.489Z,92470.56
2024-02-15T19:14:29.116Z,92475.19
2024-02-15T19:17:02.731Z,92470.53
2024-02-15T19:19:38.337Z,92471.81
2024-02-15T19:22:13.275Z,92466.59
2024-02-15T19:24:46.864Z,92475.28
2024-02-15T19:27:21.378Z,92480.88
2024-02-15T19:29:55.582Z,92474.66
2024-02-15T19:32:29.205Z,92478.97
2024-02-15T19:35:07.728Z,92480.19
2024-02-15T19:37:41.878Z,92475.53
2024-02-15T19:40:18.280Z,92476.56
2024-02-15T19:42:52.765Z,92481.16
2024-02-15T19:45:26.625Z,92482.34
2024-02-15T19:48:01.151Z,92477.38
2024-02-15T19:50:36.466Z,92474.69
2024-02-15T19:53:10.024Z,92490.41
2024-02-15T19:55:44.212Z,92479.31
2024-02-15T19:58:17.835Z,92490.66
2024-02-15T20:00:52.312Z,92488.00
2024-02-15T20:03:29.011Z,92489.28
2024-02-15T20:06:04.119Z,92487.13
2024-02-15T20:08:38.117Z,92486.03
2024-02-15T20:11:11.916Z,92491.34
2024-02-15T20:13:46.636Z,92481.25
2024-02-15T20:16:23.105Z,92486.03
2024-02-15T20:18:59.528Z,92490.41
2024-02-15T20:21:38.134Z,92487.50
2024-02-15T20:24:12.161Z,92488.78
2024-02-15T20:26:49.221Z,92483.41
2024-02-15T20:29:25.256Z,92491.06
2024-02-15T20:32:01.076Z,92489.69
2024-02-15T20:34:35.627Z,92462.59
2024-02-15T20:37:10.560Z,92489.31
2024-02-15T20:39:45.777Z,92482.44
2024-02-15T20:42:20.519Z,92488.28
2024-02-15T20:44:54.177Z,92481.97
2024-02-15T20:47:30.769Z,92481.66
2024-02-15T20:50:05.224Z,92486.34
2024-02-15T20:52:40.662Z,92485.00
2024-02-15T20:55:14.701Z,92482.47
2024-02-15T20:57:48.289Z,92484.13
2024-02-15T21:00:22.009Z,92481.53
2024-02-15T21:02:55.615Z,92480.13
2024-02-15T21:05:30.071Z,92485.19
2024-02-15T21:08:05.474Z,92475.69
2024-02-15T21:10:39.978Z,92479.00
2024-02-15T21:13:13.693Z,92479.31
2024-02-15T21:15:48.603Z,92478.19
2024-02-15T21:18:22.310Z,92473.81
2024-02-15T21:20:56.012Z,92479.28
2024-02-15T21:23:32.726Z,92479.88
2024-02-15T21:26:06.700Z,92474.53
2024-02-15T21:28:45.124Z,92482.34
2024-02-15T21:31:18.799Z,92476.88
2024-02-15T21:33:53.529Z,92483.59
2024-02-15T21:36:27.280Z,92483.16
2024-02-15T21:39:02.320Z,92478.50
2024-02-15T21:41:36.466Z,92495.00
2024-02-15T21:44:13.167Z,92488.19
2024-02-15T21:46:48.343Z,92489.53
2024-02-15T21:49:23.686Z,92490.09
2024-02-15T21:51:57.488Z,92487.53
2024-02-15T21:54:32.470Z,92487.75
2024-02-15T21:57:07.167Z,92496.25
2024-02-15T21:59:41.736Z,92496.50
2024-02-15T22:02:15.322Z,92494.50
2024-02-15T22:04:48.959Z,92495.50
2024-02-15T22:07:24.483Z,92503.44
2024-02-15T22:09:59.639Z,92492.72
2024-02-15T22:12:33.206Z,92497.84
2024-02-15T22:15:08.297Z,92497.06
2024-02-15T22:17:42.005Z,92497.19
2024-02-15T22:20:15.659Z,92492.72
2024-02-15T22:22:49.242Z,92494.16
2024-02-15T22:25:24.343Z,92492.59
2024-02-15T22:27:58.705Z,92485.13
2024-02-15T22:33:07.113Z,92482.22
2024-02-15T22:35:40.968Z,92485.47
2024-02-15T22:38:14.509Z,92484.56
2024-02-15T22:40:49.490Z,92484.13
2024-02-15T22:43:23.430Z,92476.63
2024-02-15T22:45:59.715Z,92480.44
2024-02-15T22:48:33.511Z,92483.34
2024-02-15T22:51:07.463Z,92475.28
2024-02-15T22:53:42.714Z,92481.19
2024-02-15T22:56:17.922Z,92477.88
2024-02-15T22:58:51.464Z,92473.84
2024-02-15T23:01:25.439Z,92477.53
2024-02-15T23:03:59.011Z,92480.31
2024-02-15T23:06:32.611Z,92478.97
2024-02-15T23:09:06.274Z,92485.44
2024-02-15T23:11:41.203Z,92473.50
2024-02-15T23:14:15.223Z,92474.06
2024-02-15T23:16:48.777Z,92476.31
2024-02-15T23:19:22.404Z,92469.84
2024-02-15T23:21:55.991Z,92474.19
2024-02-15T23:24:29.659Z,92469.59
2024-02-15T23:27:06.479Z,92470.16
2024-02-15T23:29:40.351Z,92472.72
2024-02-15T23:32:14.256Z,92466.34
2024-02-15T23:34:48.910Z,92462.56
2024-02-15T23:37:40.223Z,92460.00
2024-02-15T23:40:24.402Z,92464.47
2024-02-15T23:42:59.295Z,92461.88
2024-02-15T23:45:33.908Z,92462.78
2024-02-15T23:48:08.784Z,92457.66
2024-02-15T23:50:42.562Z,92465.44
2024-02-15T23:53:16.131Z,92460.28
2024-02-15T23:55:49.652Z,92456.50
2024-02-15T23:58:24.566Z,92450.81
